Time;durP1;ratioP1;P1;durP2;ratioP2;P2;SDS_P1;SDS_P2;PMS_P1;PMS_P2;Temp;Humidity;BMP_temperature;BMP_pressure;BME280_temperature;BME280_humidity;BME280_pressure;Samples;Min_cycle;Max_cycle;Signal;HPM_P1;HPM_P2
2022/09/05 00:00:30;;;;;;;5.75;2.13;;;19.50;92.90;;;;;;7338050;19;110143;-76
2022/09/05 00:03:14;;;;;;;7.18;2.35;;;19.50;92.90;;;;;;7338594;19;110207;-75
2022/09/05 00:06:11;;;;;;;6.15;2.20;;;19.50;93.00;;;;;;7343899;19;110315;-76
2022/09/05 00:08:47;;;;;;;3.95;2.50;;;19.50;92.80;;;;;;7337052;19;109432;-75
2022/09/05 00:11:25;;;;;;;6.32;2.50;;;19.40;93.30;;;;;;7335406;19;110265;-76
2022/09/05 00:14:28;;;;;;;8.05;2.67;;;19.40;92.80;;;;;;7337599;19;109482;-75
2022/09/05 00:17:46;;;;;;;4.13;2.30;;;19.40;93.00;;;;;;7337508;19;110396;-76
2022/09/05 00:20:53;;;;;;;7.93;2.10;;;19.30;93.10;;;;;;7337363;19;113204;-76
2022/09/05 00:23:58;;;;;;;9.02;2.15;;;19.30;93.20;;;;;;7334686;19;111624;-76
2022/09/05 00:27:02;;;;;;;5.75;2.65;;;19.20;93.40;;;;;;7337255;19;112840;-76
2022/09/05 00:29:41;;;;;;;9.90;2.53;;;19.10;93.60;;;;;;7335720;19;111217;-76
2022/09/05 00:32:44;;;;;;;6.68;2.45;;;19.20;94.10;;;;;;7342142;19;110794;-76
2022/09/05 00:35:11;;;;;;;6.35;2.25;;;19.10;94.20;;;;;;7336895;19;111101;-76
2022/09/05 00:37:47;;;;;;;4.43;2.30;;;19.00;94.30;;;;;;7331601;19;110330;-75
2022/09/05 00:40:32;;;;;;;7.77;2.53;;;19.00;94.60;;;;;;7333865;19;110440;-75
2022/09/05 00:43:20;;;;;;;4.43;2.20;;;19.00;94.50;;;;;;7334191;19;111067;-75
2022/09/05 00:45:58;;;;;;;6.47;2.50;;;19.00;94.40;;;;;;7334728;19;109415;-76
2022/09/05 00:48:41;;;;;;;4.88;2.20;;;18.90;94.50;;;;;;7334438;19;109537;-76
2022/09/05 00:51:26;;;;;;;15.60;3.08;;;19.00;94.50;;;;;;7333597;19;112244;-76
2022/09/05 00:54:27;;;;;;;4.38;2.85;;;18.90;94.80;;;;;;7334324;19;109463;-76
2022/09/05 00:57:29;;;;;;;3.50;2.30;;;18.90;95.00;;;;;;7337254;19;110452;-76
2022/09/05 01:00:21;;;;;;;8.88;2.47;;;18.80;94.90;;;;;;7334042;19;109716;-76
2022/09/05 01:03:25;;;;;;;7.38;2.60;;;18.80;95.10;;;;;;7330507;19;110295;-76
2022/09/05 01:06:30;;;;;;;5.63;2.40;;;18.70;95.50;;;;;;7332368;19;111563;-76
2022/09/05 01:09:13;;;;;;;8.00;2.50;;;18.70;95.70;;;;;;7339930;19;109901;-76
2022/09/05 01:12:02;;;;;;;4.47;2.10;;;18.70;95.40;;;;;;7340433;19;112010;-76
2022/09/05 01:14:57;;;;;;;14.82;2.70;;;18.70;95.50;;;;;;7339058;19;111077;-76
2022/09/05 01:17:36;;;;;;;9.50;2.38;;;18.70;95.60;;;;;;7335860;19;109324;-77
2022/09/05 01:20:27;;;;;;;7.90;2.30;;;18.70;95.80;;;;;;7339732;19;110576;-76
2022/09/05 01:23:00;;;;;;;9.75;2.15;;;18.60;95.90;;;;;;7344205;19;114835;-76
2022/09/05 01:25:40;;;;;;;4.30;2.50;;;18.60;96.30;;;;;;7340631;19;110263;-75
2022/09/05 01:28:12;;;;;;;6.57;2.22;;;18.60;96.30;;;;;;7339501;19;111970;-77
2022/09/05 01:31:04;;;;;;;4.83;2.37;;;18.60;96.20;;;;;;7338495;19;110725;-76
2022/09/05 01:33:54;;;;;;;6.63;2.40;;;18.60;96.10;;;;;;7340726;19;110447;-75
2022/09/05 01:36:50;;;;;;;3.30;2.05;;;18.60;96.00;;;;;;7185712;19;2955376;-76
2022/09/05 01:39:45;;;;;;;4.22;2.20;;;18.60;96.00;;;;;;7342011;19;109444;-76
2022/09/05 01:43:00;;;;;;;4.75;2.33;;;18.60;96.30;;;;;;7341464;19;111669;-76
2022/09/05 01:45:46;;;;;;;5.97;2.05;;;18.60;96.30;;;;;;7347714;19;111087;-76
2022/09/05 01:48:16;;;;;;;3.00;2.25;;;18.60;96.40;;;;;;7341813;19;109539;-76
2022/09/05 01:50:47;;;;;;;3.40;2.15;;;18.50;96.30;;;;;;7339836;19;111023;-76
2022/09/05 01:53:30;;;;;;;9.80;2.45;;;18.60;96.10;;;;;;7340801;19;110112;-76
2022/09/05 01:56:35;;;;;;;5.28;2.25;;;18.50;96.20;;;;;;7341524;19;110586;-76
2022/09/05 01:59:17;;;;;;;8.90;2.58;;;18.50;96.50;;;;;;7341768;19;111342;-76
2022/09/05 02:02:12;;;;;;;4.88;2.58;;;18.30;97.50;;;;;;7341088;19;109942;-76
2022/09/05 02:05:14;;;;;;;5.00;2.58;;;18.20;99.00;;;;;;7341967;19;110432;-77
2022/09/05 02:08:18;;;;;;;8.55;2.38;;;18.00;99.50;;;;;;7341553;19;112723;-76
2022/09/05 02:10:45;;;;;;;7.10;2.50;;;17.90;99.40;;;;;;7345301;19;109965;-77
2022/09/05 02:13:12;;;;;;;3.58;2.30;;;17.90;99.50;;;;;;7339155;19;111728;-77
2022/09/05 02:15:58;;;;;;;6.95;2.70;;;17.90;99.50;;;;;;7341284;19;109745;-77
2022/09/05 02:18:53;;;;;;;3.38;2.35;;;17.90;99.80;;;;;;7340786;19;110384;-77
2022/09/05 02:21:30;;;;;;;11.27;2.60;;;17.90;99.90;;;;;;7340740;19;111244;-76
2022/09/05 02:24:16;;;;;;;10.77;2.97;;;17.90;99.90;;;;;;7340611;19;110341;-77
2022/09/05 02:27:02;;;;;;;6.40;2.65;;;17.90;99.90;;;;;;7342195;19;110279;-76
2022/09/05 02:29:45;;;;;;;4.40;2.42;;;17.90;99.90;;;;;;7341207;19;111441;-76
2022/09/05 02:32:17;;;;;;;6.43;2.65;;;17.90;99.90;;;;;;7339974;19;109237;-77
2022/09/05 02:34:55;;;;;;;6.65;2.70;;;17.90;99.90;;;;;;7343985;19;110522;-76
2022/09/05 02:37:27;;;;;;;3.58;2.30;;;17.90;99.90;;;;;;7338469;19;109833;-77
2022/09/05 02:40:23;;;;;;;3.70;2.15;;;17.90;99.90;;;;;;7340412;19;112430;-76
2022/09/05 02:43:24;;;;;;;5.45;2.28;;;17.90;99.30;;;;;;7339025;19;113236;-76
2022/09/05 02:46:35;;;;;;;7.45;2.38;;;18.00;98.90;;;;;;7337531;19;110696;-77
2022/09/05 02:49:13;;;;;;;4.05;2.17;;;18.10;98.60;;;;;;7339682;19;109723;-77
2022/09/05 02:52:06;;;;;;;6.57;2.13;;;18.10;98.60;;;;;;7339657;19;109982;-76
2022/09/05 02:54:55;;;;;;;6.30;2.58;;;18.00;98.70;;;;;;7337438;19;109928;-76
2022/09/05 02:58:12;;;;;;;3.95;2.60;;;18.00;99.10;;;;;;7337426;19;109339;-77
2022/09/05 03:00:47;;;;;;;5.20;2.80;;;18.00;99.50;;;;;;7345142;19;114080;-74
2022/09/05 03:03:33;;;;;;;30.13;3.40;;;17.90;99.60;;;;;;7334103;19;110449;-74
2022/09/05 03:06:08;;;;;;;11.25;2.83;;;18.00;99.80;;;;;;7339471;19;111544;-74
2022/09/05 03:08:48;;;;;;;7.53;2.60;;;18.00;99.90;;;;;;7338558;19;109542;-74
2022/09/05 03:11:57;;;;;;;5.85;2.72;;;18.00;99.90;;;;;;7341738;19;110451;-74
2022/09/05 03:15:22;;;;;;;4.38;2.92;;;17.90;99.90;;;;;;7339438;19;111279;-74
2022/09/05 03:18:13;;;;;;;9.23;2.83;;;17.90;99.90;;;;;;7333404;19;109539;-74
2022/09/05 03:21:05;;;;;;;8.35;2.72;;;17.90;99.80;;;;;;7335205;19;109800;-74
2022/09/05 03:24:03;;;;;;;6.28;2.50;;;17.90;99.70;;;;;;7334925;19;111092;-74
2022/09/05 03:26:42;;;;;;;4.68;2.63;;;17.90;99.90;;;;;;7340327;19;110823;-74
2022/09/05 03:29:36;;;;;;;3.60;2.60;;;17.80;99.90;;;;;;7334237;19;111212;-74
2022/09/05 03:32:21;;;;;;;4.57;2.60;;;17.90;99.90;;;;;;7334067;19;111232;-74
2022/09/05 03:35:32;;;;;;;6.15;2.28;;;17.90;99.90;;;;;;7332414;19;111159;-74
2022/09/05 03:38:28;;;;;;;4.63;2.55;;;17.90;99.90;;;;;;7331190;19;111839;-74
2022/09/05 03:41:33;;;;;;;5.57;2.50;;;17.90;99.90;;;;;;7334567;19;109838;-74
2022/09/05 03:44:31;;;;;;;3.67;2.35;;;18.00;99.90;;;;;;7334610;19;113575;-74
2022/09/05 03:47:25;;;;;;;4.45;2.17;;;18.00;99.90;;;;;;7335038;19;111140;-74
2022/09/05 03:50:08;;;;;;;5.68;2.25;;;18.00;99.90;;;;;;7334636;19;110416;-74
2022/09/05 03:53:14;;;;;;;3.97;2.22;;;18.00;99.80;;;;;;7344116;19;111931;-74
2022/09/05 03:56:05;;;;;;;4.78;2.47;;;18.10;99.90;;;;;;7337570;19;110700;-74
2022/09/05 03:59:13;;;;;;;6.47;2.40;;;18.00;99.90;;;;;;7338697;19;111977;-74
2022/09/05 04:01:46;;;;;;;4.45;2.22;;;18.00;99.90;;;;;;7338643;19;111202;-74
2022/09/05 04:04:48;;;;;;;3.65;2.00;;;18.10;99.90;;;;;;7335656;19;110710;-74
2022/09/05 04:07:42;;;;;;;3.45;2.47;;;18.10;99.90;;;;;;7336581;19;110009;-74
2022/09/05 04:10:34;;;;;;;4.32;2.03;;;18.00;99.90;;;;;;7335897;19;113584;-74
2022/09/05 04:13:30;;;;;;;4.38;2.33;;;18.00;99.90;;;;;;7336464;19;109454;-74
2022/09/05 04:16:09;;;;;;;6.20;2.50;;;18.00;99.90;;;;;;7343011;19;110554;-74
2022/09/05 04:18:42;;;;;;;4.25;2.30;;;18.00;99.90;;;;;;7337823;19;109634;-74
2022/09/05 04:21:31;;;;;;;7.97;3.13;;;17.90;99.90;;;;;;7338479;19;110567;-74
2022/09/05 04:24:00;;;;;;;7.95;2.72;;;18.00;99.80;;;;;;7337183;19;110234;-74
2022/09/05 04:26:46;;;;;;;7.47;2.33;;;17.90;99.90;;;;;;7337448;19;109938;-74
2022/09/05 04:29:34;;;;;;;15.90;3.20;;;18.00;99.70;;;;;;7337193;19;110426;-74
2022/09/05 04:32:32;;;;;;;11.52;3.30;;;18.00;99.90;;;;;;7336412;19;111538;-74
2022/09/05 04:35:54;;;;;;;14.68;2.75;;;17.90;99.90;;;;;;7337327;19;110620;-74
2022/09/05 04:38:37;;;;;;;6.72;2.63;;;17.90;99.90;;;;;;7331673;19;109911;-74
2022/09/05 04:41:14;;;;;;;10.43;2.90;;;17.90;99.90;;;;;;7339648;19;111191;-74
2022/09/05 04:43:53;;;;;;;;;;;17.80;99.90;;;;;;7339259;19;110592;-74
2022/09/05 04:46:23;;;;;;;7.80;2.70;;;17.80;99.90;;;;;;7344112;19;110982;-74
2022/09/05 04:49:05;;;;;;;6.22;3.38;;;17.80;99.90;;;;;;7340659;19;112076;-74
2022/09/05 04:51:56;;;;;;;8.68;2.83;;;17.90;99.90;;;;;;7341001;19;110542;-74
2022/09/05 04:54:34;;;;;;;11.52;2.70;;;17.80;99.90;;;;;;7340120;19;110438;-74
2022/09/05 04:57:19;;;;;;;9.55;2.58;;;17.80;99.90;;;;;;7338902;19;109712;-74
2022/09/05 04:59:50;;;;;;;9.50;2.67;;;17.80;99.90;;;;;;7340317;19;109889;-74
2022/09/05 05:02:58;;;;;;;4.82;2.75;;;17.70;99.90;;;;;;7340574;19;113487;-74
2022/09/05 05:05:47;;;;;;;6.97;3.17;;;17.70;99.90;;;;;;7345946;19;110372;-74
2022/09/05 05:08:43;;;;;;;4.55;2.83;;;17.70;99.90;;;;;;7340679;19;112639;-74
2022/09/05 05:11:15;;;;;;;9.93;3.10;;;17.70;99.90;;;;;;7341966;19;109685;-74
2022/09/05 05:14:23;;;;;;;7.05;2.67;;;17.70;99.90;;;;;;7342394;19;111641;-74
2022/09/05 05:17:39;;;;;;;12.27;2.53;;;17.70;99.90;;;;;;7341898;19;112736;-74
2022/09/05 05:20:38;;;;;;;8.57;2.83;;;17.70;99.90;;;;;;7341584;19;110815;-74
2022/09/05 05:23:15;;;;;;;11.20;2.42;;;17.70;99.90;;;;;;7343276;19;110773;-74
2022/09/05 05:25:55;;;;;;;6.72;2.83;;;17.70;99.90;;;;;;7341554;19;111203;-74
2022/09/05 05:28:37;;;;;;;10.02;2.70;;;17.80;99.90;;;;;;7340721;19;110079;-74
2022/09/05 05:31:29;;;;;;;5.85;2.83;;;17.80;99.90;;;;;;7346706;19;110511;-74
2022/09/05 05:34:12;;;;;;;12.15;2.30;;;17.80;99.90;;;;;;7340363;19;110640;-74
2022/09/05 05:37:28;;;;;;;16.55;3.28;;;17.90;99.90;;;;;;7342550;19;110860;-74
2022/09/05 05:40:09;;;;;;;18.10;2.55;;;18.00;99.90;;;;;;7341914;19;112179;-74
2022/09/05 05:42:39;;;;;;;11.48;2.33;;;18.00;99.90;;;;;;7342580;19;109570;-74
2022/09/05 05:45:26;;;;;;;8.00;2.88;;;18.10;99.90;;;;;;7342436;19;111279;-75
2022/09/05 05:48:02;;;;;;;7.38;2.25;;;18.20;99.90;;;;;;7341388;19;111726;-74
2022/09/05 05:50:56;;;;;;;4.78;2.50;;;18.30;99.90;;;;;;7340705;19;109472;-74
2022/09/05 05:54:00;;;;;;;7.88;2.13;;;18.40;99.90;;;;;;7341232;19;110480;-74
2022/09/05 05:56:45;;;;;;;4.75;2.03;;;18.60;99.90;;;;;;7346227;19;111226;-74
2022/09/05 05:59:54;;;;;;;6.28;2.50;;;18.70;99.90;;;;;;7341990;19;110793;-74
2022/09/05 06:02:30;;;;;;;5.05;2.28;;;18.90;99.90;;;;;;7341972;19;110714;-74
2022/09/05 06:05:23;;;;;;;5.28;2.13;;;18.90;99.90;;;;;;7342126;19;109411;-74
2022/09/05 06:08:07;;;;;;;5.13;1.73;;;19.10;99.90;;;;;;7341903;19;113454;-74
2022/09/05 06:11:11;;;;;;;3.65;2.13;;;19.20;99.90;;;;;;7341909;19;113191;-74
2022/09/05 06:14:05;;;;;;;5.43;1.83;;;19.30;99.90;;;;;;7340550;19;109410;-74
2022/09/05 06:17:11;;;;;;;5.20;2.03;;;19.40;99.90;;;;;;7341508;19;112704;-75
2022/09/05 06:19:56;;;;;;;5.07;2.15;;;19.60;99.90;;;;;;7339504;19;111143;-74
2022/09/05 06:22:46;;;;;;;4.78;1.80;;;19.70;99.90;;;;;;7344604;19;109629;-74
2022/09/05 06:25:43;;;;;;;6.43;1.60;;;19.90;99.90;;;;;;7335541;19;110329;-74
2022/09/05 06:28:29;;;;;;;5.90;1.63;;;20.00;99.90;;;;;;7338907;19;109541;-75
2022/09/05 06:31:28;;;;;;;3.05;1.80;;;20.10;99.70;;;;;;7340570;19;110452;-75
2022/09/05 06:34:06;;;;;;;5.32;1.77;;;20.30;99.60;;;;;;7338225;19;111044;-75
2022/09/05 06:37:20;;;;;;;4.47;2.17;;;20.40;99.50;;;;;;7338424;19;110900;-74
2022/09/05 06:39:59;;;;;;;4.38;1.52;;;20.50;99.20;;;;;;7338460;19;110501;-74
2022/09/05 06:42:38;;;;;;;9.50;1.70;;;20.60;99.20;;;;;;7339606;19;111074;-74
2022/09/05 06:45:53;;;;;;;8.52;1.95;;;20.70;99.10;;;;;;7345467;19;109485;-75
2022/09/05 06:48:37;;;;;;;3.47;1.77;;;20.90;98.80;;;;;;7336206;19;112435;-74
2022/09/05 06:51:41;;;;;;;8.20;1.90;;;20.90;98.80;;;;;;7341478;19;109588;-74
2022/09/05 06:55:14;;;;;;;3.58;1.50;;;21.00;98.90;;;;;;7340452;19;110501;-75
2022/09/05 06:58:26;;;;;;;4.43;1.75;;;21.10;98.60;;;;;;7335538;19;110065;-75
2022/09/05 07:00:59;;;;;;;5.57;1.83;;;21.20;98.50;;;;;;7335751;19;109527;-74
2022/09/05 07:03:59;;;;;;;15.80;2.00;;;21.30;98.40;;;;;;7336934;19;110442;-73
2022/09/05 07:07:00;;;;;;;4.43;1.20;;;21.40;98.40;;;;;;7334561;19;112881;-74
2022/09/05 07:09:50;;;;;;;23.13;2.17;;;21.60;98.10;;;;;;7335522;19;109908;-74
2022/09/05 07:12:39;;;;;;;4.32;1.55;;;21.70;98.00;;;;;;7341856;19;112142;-74
2022/09/05 07:15:12;;;;;;;2.65;1.20;;;21.90;97.90;;;;;;7335811;19;111960;-74
2022/09/05 07:17:55;;;;;;;5.95;1.30;;;22.00;97.70;;;;;;7334977;19;110380;-74
2022/09/05 07:21:08;;;;;;;2.42;1.15;;;22.20;97.50;;;;;;7333738;19;111365;-74
2022/09/05 07:24:26;;;;;;;3.08;1.23;;;22.30;97.10;;;;;;7336713;19;110123;-75
2022/09/05 07:27:34;;;;;;;3.83;1.00;;;22.50;96.90;;;;;;7333219;19;109599;-74
2022/09/05 07:30:21;;;;;;;7.00;1.20;;;22.80;96.40;;;;;;7337749;19;113359;-74
2022/09/05 07:32:52;;;;;;;3.58;1.20;;;22.90;96.10;;;;;;7339196;19;109739;-74
2022/09/05 07:35:29;;;;;;;8.88;1.65;;;23.00;95.80;;;;;;7339507;19;110851;-74
2022/09/05 07:38:18;;;;;;;3.22;1.08;;;23.10;95.60;;;;;;7343753;19;111590;-74
2022/09/05 07:40:56;;;;;;;4.70;1.10;;;23.20;95.20;;;;;;7340731;19;110413;-74
2022/09/05 07:43:38;;;;;;;3.75;1.30;;;23.30;95.30;;;;;;7339649;19;111689;-75
2022/09/05 07:46:11;;;;;;;4.15;1.00;;;23.30;95.10;;;;;;7338191;19;110518;-74
2022/09/05 07:49:11;;;;;;;8.48;1.35;;;23.40;94.80;;;;;;7339138;19;110184;-75
2022/09/05 07:51:46;;;;;;;3.45;1.10;;;23.50;94.60;;;;;;7336775;19;110155;-75
2022/09/05 07:54:40;;;;;;;5.50;1.30;;;23.60;94.60;;;;;;7339692;19;110727;-75
2022/09/05 07:57:35;;;;;;;1.77;1.05;;;23.70;94.60;;;;;;7338224;19;112706;-74
2022/09/05 08:00:22;;;;;;;3.10;1.10;;;23.90;94.10;;;;;;7338080;19;110141;-75
2022/09/05 08:02:58;;;;;;;4.07;1.10;;;23.90;94.10;;;;;;7344876;19;109461;-75
2022/09/05 08:05:27;;;;;;;4.28;1.00;;;24.10;94.00;;;;;;7337153;19;110866;-67
2022/09/05 08:08:07;;;;;;;5.00;1.10;;;24.10;93.70;;;;;;7339231;19;109319;-68
2022/09/05 08:10:41;;;;;;;6.50;1.20;;;24.20;93.90;;;;;;7338774;19;109705;-68
2022/09/05 08:13:41;;;;;;;1.42;0.85;;;24.40;93.90;;;;;;7338901;19;113112;-68
2022/09/05 08:16:16;;;;;;;1.63;1.10;;;24.50;93.80;;;;;;7339132;19;110138;-68
2022/09/05 08:19:13;;;;;;;7.30;1.25;;;24.60;93.50;;;;;;7337655;19;111513;-68
2022/09/05 08:21:48;;;;;;;5.60;1.20;;;24.70;93.10;;;;;;7336928;19;110164;-68
2022/09/05 08:24:25;;;;;;;4.30;1.00;;;24.80;92.90;;;;;;7338672;19;109979;-68
2022/09/05 08:27:21;;;;;;;4.07;1.10;;;24.90;93.00;;;;;;7344032;19;109351;-68
2022/09/05 08:30:07;;;;;;;5.13;1.10;;;25.10;93.00;;;;;;7338349;19;109451;-68
2022/09/05 08:33:04;;;;;;;3.60;1.02;;;25.20;92.60;;;;;;7336600;19;112926;-68
2022/09/05 08:35:42;;;;;;;1.63;0.90;;;25.40;92.40;;;;;;7336126;19;110210;-68
2022/09/05 08:38:12;;;;;;;5.22;1.10;;;25.50;92.30;;;;;;7338109;19;109310;-68
2022/09/05 08:41:03;;;;;;;3.72;1.08;;;25.60;91.80;;;;;;7338320;19;110478;-68
2022/09/05 08:44:07;;;;;;;5.05;1.02;;;25.70;91.30;;;;;;7338032;19;110109;-68
2022/09/05 08:47:10;;;;;;;3.72;0.90;;;25.70;91.40;;;;;;7334518;19;110538;-68
2022/09/05 08:50:12;;;;;;;2.13;0.90;;;25.80;91.30;;;;;;7341910;19;111448;-68
2022/09/05 08:52:49;;;;;;;4.10;1.40;;;26.00;90.50;;;;;;7337052;19;109587;-68
2022/09/05 08:55:16;;;;;;;2.53;1.10;;;26.10;90.10;;;;;;7337292;19;110106;-68
2022/09/05 08:58:15;;;;;;;5.20;1.25;;;26.10;90.10;;;;;;7337324;19;112357;-68
2022/09/05 09:00:54;;;;;;;7.25;1.00;;;26.30;89.50;;;;;;7332666;19;109495;-68
2022/09/05 09:03:50;;;;;;;7.97;0.97;;;26.50;88.90;;;;;;7333285;19;112454;-68
2022/09/05 09:06:26;;;;;;;4.32;1.05;;;26.60;89.50;;;;;;7333172;19;111330;-68
2022/09/05 09:09:14;;;;;;;4.45;1.00;;;26.80;89.00;;;;;;7334253;19;110598;-68
2022/09/05 09:11:50;;;;;;;1.03;0.70;;;27.00;86.70;;;;;;7332842;19;110435;-68
2022/09/05 09:14:22;;;;;;;6.05;0.90;;;27.10;85.80;;;;;;7337585;19;110968;-68
2022/09/05 09:17:18;;;;;;;1.42;0.80;;;27.30;84.10;;;;;;7332572;19;111543;-68
2022/09/05 09:20:16;;;;;;;6.65;0.88;;;27.40;83.50;;;;;;7329749;19;110102;-68
2022/09/05 09:22:53;;;;;;;4.60;0.90;;;27.50;82.30;;;;;;7333261;19;109454;-68
2022/09/05 09:25:26;;;;;;;;;;;27.60;83.00;;;;;;7333349;19;111150;-68
2022/09/05 09:28:30;;;;;;;6.20;0.80;;;27.70;81.20;;;;;;7336332;19;110122;-68
2022/09/05 09:31:32;;;;;;;2.22;0.70;;;27.80;79.00;;;;;;7340654;19;109786;-68
2022/09/05 09:34:07;;;;;;;9.18;1.08;;;27.90;80.70;;;;;;7338513;19;110787;-68
2022/09/05 09:36:43;;;;;;;2.92;0.80;;;28.10;80.60;;;;;;7338676;19;110214;-68
2022/09/05 09:39:34;;;;;;;5.03;0.93;;;28.30;79.30;;;;;;7347732;19;110220;-68
2022/09/05 09:42:31;;;;;;;8.18;1.08;;;28.40;79.30;;;;;;7342105;19;110480;-68
2022/09/05 09:45:08;;;;;;;1.98;0.70;;;28.50;76.70;;;;;;7342775;19;109202;-68
2022/09/05 09:48:09;;;;;;;3.60;0.70;;;28.60;75.80;;;;;;7342358;19;109818;-68
2022/09/05 09:51:06;;;;;;;2.83;0.80;;;28.70;74.30;;;;;;7341861;19;110103;-68
2022/09/05 09:54:10;;;;;;;1.23;0.70;;;28.80;75.00;;;;;;7342119;19;109854;-68
2022/09/05 09:57:14;;;;;;;3.95;0.70;;;28.90;74.50;;;;;;7343150;19;110551;-68
2022/09/05 09:59:46;;;;;;;4.78;0.70;;;29.00;72.80;;;;;;7339205;19;110865;-68
2022/09/05 10:03:00;;;;;;;2.90;0.80;;;29.10;73.70;;;;;;7336645;19;109581;-68
2022/09/05 10:06:02;;;;;;;5.80;0.80;;;29.20;72.80;;;;;;7348004;19;111538;-68
2022/09/05 10:09:14;;;;;;;5.38;0.93;;;29.30;72.40;;;;;;7341409;19;109473;-68
2022/09/05 10:12:04;;;;;;;4.75;0.90;;;29.40;72.60;;;;;;7342191;19;109351;-68
2022/09/05 10:15:15;;;;;;;1.85;0.93;;;29.60;71.90;;;;;;7340787;19;110491;-68
2022/09/05 10:18:24;;;;;;;3.97;0.80;;;29.70;70.60;;;;;;7342004;19;110528;-68
2022/09/05 10:21:15;;;;;;;3.58;1.10;;;29.90;69.70;;;;;;7340116;19;110937;-68
2022/09/05 10:23:52;;;;;;;4.15;0.88;;;29.90;69.00;;;;;;7341288;19;110126;-68
2022/09/05 10:26:50;;;;;;;3.08;0.60;;;30.00;70.10;;;;;;7340904;19;109364;-68
2022/09/05 10:29:29;;;;;;;1.63;0.75;;;30.10;68.90;;;;;;7341861;19;110355;-69
2022/09/05 10:32:16;;;;;;;1.00;0.60;;;30.20;68.60;;;;;;7346598;19;110187;-68
2022/09/05 10:35:14;;;;;;;3.47;0.80;;;30.30;68.50;;;;;;7341699;19;111542;-68
2022/09/05 10:38:23;;;;;;;1.98;0.70;;;30.40;67.00;;;;;;7338895;19;111500;-68
2022/09/05 10:40:51;;;;;;;3.65;0.93;;;30.50;66.80;;;;;;7337140;19;109673;-68
2022/09/05 10:44:03;;;;;;;7.22;0.93;;;30.60;66.20;;;;;;7340645;19;112337;-68
2022/09/05 10:47:08;;;;;;;2.78;0.60;;;30.70;66.80;;;;;;7339672;19;111433;-68
2022/09/05 10:49:43;;;;;;;4.15;0.90;;;30.80;65.30;;;;;;7340475;19;109595;-68
2022/09/05 10:52:12;;;;;;;3.95;0.80;;;30.80;66.20;;;;;;7341634;19;110843;-68
2022/09/05 10:55:05;;;;;;;2.67;0.90;;;31.00;66.10;;;;;;7340991;19;110103;-68
2022/09/05 10:57:53;;;;;;;2.33;0.80;;;31.00;65.20;;;;;;7345955;19;110176;-68
2022/09/05 11:00:43;;;;;;;1.67;0.75;;;31.10;65.50;;;;;;7338639;19;111227;-68
2022/09/05 11:03:54;;;;;;;2.30;0.85;;;31.20;65.60;;;;;;7340276;19;110259;-68
2022/09/05 11:06:55;;;;;;;3.38;0.85;;;31.30;63.90;;;;;;7338230;19;110484;-68
2022/09/05 11:09:45;;;;;;;4.03;0.75;;;31.40;65.60;;;;;;7338451;19;110854;-68
2022/09/05 11:12:35;;;;;;;1.98;0.90;;;31.50;65.00;;;;;;7339976;19;109646;-69
2022/09/05 11:15:30;;;;;;;5.70;1.00;;;31.50;64.30;;;;;;7340060;19;110230;-68
2022/09/05 11:18:31;;;;;;;3.42;0.70;;;31.60;64.20;;;;;;7337210;19;110398;-68
2022/09/05 12:03:49;;;;;;;1.38;0.88;;;31.20;64.50;;;;;;7376276;19;109507;-68
2022/09/05 12:07:04;;;;;;;2.50;0.90;;;32.60;61.40;;;;;;7372869;19;109513;-68
2022/09/05 12:10:13;;;;;;;4.35;1.00;;;32.70;62.90;;;;;;7372177;19;112631;-68
2022/09/05 12:13:49;;;;;;;1.10;1.00;;;32.90;60.40;;;;;;7366190;19;113025;-69
2022/09/05 12:16:38;;;;;;;4.07;1.00;;;33.10;59.70;;;;;;7360840;19;111556;-69
2022/09/05 12:19:25;;;;;;;9.32;1.08;;;33.10;59.80;;;;;;7361497;19;110397;-68
2022/09/05 12:22:31;;;;;;;13.75;1.75;;;33.30;60.00;;;;;;7360807;19;110545;-69
2022/09/05 12:25:23;;;;;;;2.60;1.20;;;33.50;59.10;;;;;;7355327;19;109925;-68
2022/09/05 12:28:16;;;;;;;3.67;1.00;;;33.60;59.30;;;;;;7366246;19;112121;-68
2022/09/05 12:31:20;;;;;;;2.03;0.90;;;33.70;58.30;;;;;;7368422;19;109679;-68
2022/09/05 12:34:12;;;;;;;2.72;1.10;;;33.90;57.40;;;;;;7368224;19;112842;-68
2022/09/05 12:37:02;;;;;;;3.78;1.20;;;33.90;58.10;;;;;;7368338;19;113044;-69
2022/09/05 12:39:53;;;;;;;4.63;1.00;;;34.00;57.70;;;;;;7369212;19;109763;-69
2022/09/05 12:43:05;;;;;;;3.70;1.10;;;34.10;57.30;;;;;;7369197;19;112888;-69
2022/09/05 12:46:06;;;;;;;3.35;1.40;;;34.00;56.80;;;;;;7367668;19;113216;-69
2022/09/05 12:49:04;;;;;;;2.85;0.90;;;34.00;57.10;;;;;;7369202;19;110638;-68
2022/09/05 12:51:36;;;;;;;6.72;1.20;;;34.10;57.80;;;;;;7368462;19;111312;-68
2022/09/05 12:54:32;;;;;;;7.15;0.80;;;34.10;57.20;;;;;;7378620;19;110505;-69
2022/09/05 12:57:26;;;;;;;3.17;0.90;;;34.20;56.00;;;;;;7372013;19;109618;-69
2022/09/05 13:00:20;;;;;;;2.67;0.90;;;34.10;57.30;;;;;;7372953;19;113724;-68
2022/09/05 13:03:14;;;;;;;2.35;1.00;;;34.10;56.10;;;;;;7355777;19;109418;-68
2022/09/05 13:06:09;;;;;;;8.10;1.20;;;34.20;55.50;;;;;;7343657;19;109862;-69
2022/09/05 13:08:58;;;;;;;15.20;1.13;;;34.20;55.20;;;;;;7343581;19;110752;-69
2022/09/05 13:11:29;;;;;;;5.00;0.95;;;34.30;55.30;;;;;;7343652;19;109867;-68
2022/09/05 13:14:47;;;;;;;1.65;0.90;;;34.30;55.30;;;;;;7343642;19;111517;-68
2022/09/05 13:18:02;;;;;;;0.90;0.80;;;34.50;54.40;;;;;;7342684;19;113784;-68
2022/09/05 13:20:34;;;;;;;1.23;0.90;;;34.70;54.30;;;;;;7349002;19;109275;-68
2022/09/05 13:23:30;;;;;;;1.48;1.10;;;34.90;53.60;;;;;;7342066;19;110317;-68
2022/09/05 13:26:06;;;;;;;2.57;1.10;;;35.00;53.00;;;;;;7343154;19;110168;-69
2022/09/05 13:28:49;;;;;;;2.22;0.90;;;35.00;54.10;;;;;;7343059;19;110411;-68
2022/09/05 13:31:40;;;;;;;2.85;1.00;;;35.10;53.50;;;;;;7341059;19;110131;-68
2022/09/05 13:34:35;;;;;;;2.72;0.90;;;35.20;53.70;;;;;;7340727;19;110234;-69
2022/09/05 13:37:28;;;;;;;4.88;1.20;;;35.30;51.80;;;;;;7341019;19;112805;-68
2022/09/05 13:40:23;;;;;;;1.58;0.80;;;35.40;52.10;;;;;;7340711;19;114102;-68
2022/09/05 13:43:09;;;;;;;2.28;0.98;;;35.40;52.70;;;;;;7341680;19;109604;-68
2022/09/05 13:46:10;;;;;;;7.18;1.20;;;35.50;52.20;;;;;;7347771;19;109610;-68
2022/09/05 13:49:09;;;;;;;1.50;1.15;;;35.40;53.30;;;;;;7340356;19;109362;-68
2022/09/05 13:52:24;;;;;;;2.83;1.00;;;35.40;52.40;;;;;;7341380;19;112278;-68
2022/09/05 13:54:59;;;;;;;2.53;1.10;;;35.20;53.00;;;;;;7341525;19;111036;-68
2022/09/05 13:57:42;;;;;;;4.38;1.00;;;35.10;52.60;;;;;;7341957;19;109737;-68
2022/09/05 14:00:12;;;;;;;1.67;1.00;;;35.20;53.00;;;;;;7342187;19;109827;-68
2022/09/05 14:03:18;;;;;;;3.70;1.38;;;35.30;52.70;;;;;;7339279;19;111603;-68
2022/09/05 14:06:34;;;;;;;2.25;1.08;;;35.50;52.40;;;;;;7342156;19;109877;-68
2022/09/05 14:09:25;;;;;;;;;;;35.60;51.40;;;;;;7341516;19;110442;-68
2022/09/05 14:12:28;;;;;;;3.13;1.00;;;35.40;50.40;;;;;;7350251;19;110375;-68
2022/09/05 14:15:00;;;;;;;2.65;0.85;;;35.40;51.30;;;;;;7339606;19;109934;-68
2022/09/05 14:18:02;;;;;;;4.53;1.10;;;35.50;51.00;;;;;;7341686;19;110367;-68
2022/09/05 14:21:15;;;;;;;2.33;1.25;;;35.60;51.30;;;;;;7341826;19;110205;-68
2022/09/05 14:24:24;;;;;;;1.67;1.00;;;35.40;51.50;;;;;;7341992;19;110440;-68
2022/09/05 14:27:10;;;;;;;4.75;1.10;;;35.40;51.20;;;;;;7341936;19;110145;-68
2022/09/05 14:29:54;;;;;;;3.28;1.20;;;35.40;51.30;;;;;;7341500;19;109404;-68
2022/09/05 14:32:25;;;;;;;20.10;2.03;;;35.40;50.70;;;;;;7341716;19;110207;-68
2022/09/05 14:35:24;;;;;;;7.25;1.13;;;35.40;51.20;;;;;;7340994;19;113558;-68
2022/09/05 14:38:26;;;;;;;11.85;1.15;;;35.40;51.30;;;;;;7343832;19;109254;-68
2022/09/05 14:41:31;;;;;;;7.25;1.30;;;35.30;51.70;;;;;;7340762;19;110183;-68
2022/09/05 14:44:17;;;;;;;6.47;1.63;;;35.40;52.90;;;;;;7341330;19;109346;-68
2022/09/05 14:46:58;;;;;;;2.03;1.40;;;35.60;52.20;;;;;;7340890;19;112988;-68
2022/09/05 14:49:54;;;;;;;8.52;1.30;;;35.50;51.20;;;;;;7336704;19;110803;-68
2022/09/05 14:52:27;;;;;;;4.72;0.98;;;35.70;51.40;;;;;;7339384;19;109668;-69
2022/09/05 14:54:57;;;;;;;4.78;1.00;;;35.70;51.10;;;;;;7337040;19;110387;-69
2022/09/05 14:57:46;;;;;;;5.65;1.10;;;35.70;51.40;;;;;;7336617;19;110051;-70
2022/09/05 15:00:52;;;;;;;2.47;1.10;;;35.80;50.60;;;;;;7341284;19;109803;-69
2022/09/05 15:03:43;;;;;;;1.10;0.98;;;35.80;49.90;;;;;;7336308;19;112120;-69
2022/09/05 15:06:30;;;;;;;7.38;1.35;;;35.80;50.30;;;;;;7338857;19;109260;-69
2022/09/05 15:09:02;;;;;;;4.55;1.00;;;35.80;50.50;;;;;;7338837;19;110008;-74
2022/09/05 15:11:49;;;;;;;6.28;1.85;;;35.90;51.20;;;;;;7339467;19;112387;-74
2022/09/05 15:14:37;;;;;;;1.98;1.00;;;36.00;50.80;;;;;;7339748;19;110513;-74
2022/09/05 15:17:05;;;;;;;2.05;1.10;;;36.10;51.30;;;;;;7338921;19;110472;-73